createdAt,value
2019-04-20T00:01:50.502Z,101031.22
2019-04-20T00:04:23.414Z,101029.63
2019-04-20T00:06:48.525Z,101024.73
2019-04-20T00:09:15.935Z,101022.47
2019-04-20T00:11:50.771Z,101027.77
2019-04-20T00:14:14.210Z,101017.23
2019-04-20T00:16:35.781Z,101016.34
2019-04-20T00:19:04.103Z,101010.53
2019-04-20T00:21:42.760Z,101011.55
2019-04-20T00:24:13.341Z,101011.87
2019-04-20T00:27:07.474Z,101006.94
2019-04-20T00:29:21.691Z,100999.34
2019-04-20T00:31:45.779Z,100998.84
2019-04-20T00:34:07.873Z,101002.92
2019-04-20T00:36:26.275Z,100999.25
2019-04-20T00:38:56.967Z,100995.77
2019-04-20T00:41:22.394Z,100999.28
2019-04-20T00:43:49.151Z,100993.94
2019-04-20T00:46:21.878Z,100995.18
2019-04-20T00:48:50.891Z,100992.50
2019-04-20T00:51:39.472Z,100992.47
2019-04-20T00:53:43.297Z,100990.02
2019-04-20T00:56:07.448Z,100981.27
2019-04-20T00:58:46.658Z,100983.50
2019-04-20T01:01:20.247Z,100976.05
2019-04-20T01:03:42.306Z,100976.60
2019-04-20T01:06:23.445Z,100981.12
2019-04-20T01:08:34.037Z,100981.65
2019-04-20T01:11:01.050Z,100978.94
2019-04-20T01:13:28.803Z,100980.78
2019-04-20T01:16:03.071Z,100977.83
2019-04-20T01:18:22.933Z,100975.34
2019-04-20T01:20:49.390Z,100982.49
2019-04-20T01:23:19.633Z,100974.20
2019-04-20T01:25:45.429Z,100976.13
2019-04-20T01:28:28.398Z,100980.35
2019-04-20T01:30:44.630Z,100977.70
2019-04-20T01:33:22.820Z,100983.71
2019-04-20T01:35:50.910Z,100981.03
2019-04-20T01:38:22.379Z,100979.63
2019-04-20T01:40:29.585Z,100980.22
2019-04-20T01:42:55.510Z,100987.28
2019-04-20T01:45:27.455Z,100986.88
2019-04-20T01:47:53.070Z,100979.81
2019-04-20T01:50:23.064Z,100982.04
2019-04-20T01:52:56.266Z,100978.98
2019-04-20T01:55:33.310Z,100977.35
2019-04-20T01:58:06.119Z,100975.48
2019-04-20T02:00:29.479Z,100980.63
2019-04-20T02:02:58.370Z,100976.18
2019-04-20T02:05:25.991Z,100972.66
2019-04-20T02:07:49.332Z,100965.70
2019-04-20T02:10:16.571Z,100967.44
2019-04-20T02:12:43.977Z,100967.03
2019-04-20T02:15:22.190Z,100965.81
2019-04-20T02:17:46.175Z,100964.92
2019-04-20T02:20:27.720Z,100964.92
2019-04-20T02:22:51.587Z,100962.41
2019-04-20T02:25:03.513Z,100967.31
2019-04-20T02:27:36.898Z,100965.49
2019-04-20T02:30:30.899Z,100968.80
2019-04-20T02:33:14.013Z,100969.34
2019-04-20T02:35:36.678Z,100963.19
2019-04-20T02:40:45.186Z,100970.28
2019-04-20T02:43:09.520Z,100963.54
2019-04-20T02:47:57.251Z,100965.73
2019-04-20T02:50:22.476Z,100972.50
2019-04-20T02:52:56.748Z,100965.55
2019-04-20T02:55:14.463Z,100968.31
2019-04-20T03:00:13.761Z,100966.17
2019-04-20T03:02:23.778Z,100966.17
2019-04-20T03:04:44.184Z,100968.36
2019-04-20T03:07:22.031Z,100962.59
2019-04-20T03:09:54.385Z,100969.22
2019-04-20T03:12:23.676Z,100970.91
2019-04-20T03:14:44.964Z,100973.02
2019-04-20T03:17:21.633Z,100967.84
2019-04-20T03:19:38.569Z,100966.82
2019-04-20T03:22:13.500Z,100969.58
2019-04-20T03:24:46.981Z,100969.66
2019-04-20T03:27:09.872Z,100967.11
2019-04-20T03:29:52.289Z,100967.19
2019-04-20T03:37:28.059Z,100968.38
2019-04-20T03:39:40.444Z,100966.66
2019-04-20T03:41:56.658Z,100970.33
2019-04-20T03:44:25.559Z,100965.03
2019-04-20T03:46:57.242Z,100963.28
2019-04-20T03:49:42.301Z,100962.95
2019-04-20T03:52:26.176Z,100956.77
2019-04-20T03:55:03.135Z,100955.14
2019-04-20T03:57:45.919Z,100953.60
2019-04-20T04:00:30.512Z,100954.90
2019-04-20T04:05:44.369Z,100953.62
2019-04-20T04:08:09.475Z,100950.95
2019-04-20T04:10:36.399Z,100954.90
2019-04-20T04:13:09.338Z,100951.20
2019-04-20T04:15:42.710Z,100949.16
2019-04-20T04:18:13.859Z,100952.19
2019-04-20T04:20:43.355Z,100948.86
2019-04-20T04:23:19.468Z,100945.36
2019-04-20T04:25:50.042Z,100951.95
2019-04-20T04:28:15.417Z,100954.09
2019-04-20T04:30:40.169Z,100962.27
2019-04-20T04:33:39.940Z,100958.24
2019-04-20T04:35:34.633Z,100954.77
2019-04-20T04:38:06.676Z,100959.74
2019-04-20T04:40:42.728Z,100960.61
2019-04-20T04:43:05.636Z,100958.82
2019-04-20T04:45:15.943Z,100958.15
2019-04-20T04:47:40.900Z,100958.46
2019-04-20T04:50:14.226Z,100959.70
2019-04-20T04:52:45.572Z,100960.25
2019-04-20T04:55:19.971Z,100974.30
2019-04-20T04:57:32.668Z,100969.77
2019-04-20T04:59:59.450Z,100965.25
2019-04-20T05:02:32.457Z,100968.08
2019-04-20T05:05:17.756Z,100969.09
2019-04-20T05:07:38.853Z,100969.00
2019-04-20T05:09:54.966Z,100975.86
2019-04-20T05:12:24.307Z,100970.63
2019-04-20T05:14:58.081Z,100968.23
2019-04-20T05:17:41.637Z,100975.06
2019-04-20T05:20:03.634Z,100972.74
2019-04-20T05:22:32.166Z,100980.27
2019-04-20T05:25:04.680Z,100980.09
2019-04-20T05:27:39.740Z,100979.08
2019-04-20T05:29:50.775Z,100983.91
2019-04-20T05:32:24.959Z,100977.56
2019-04-20T05:35:05.024Z,100987.20
2019-04-20T05:37:41.421Z,100984.09
2019-04-20T05:40:04.786Z,100986.63
2019-04-20T05:42:30.877Z,100984.91
2019-04-20T05:45:03.287Z,100983.92
2019-04-20T05:47:25.049Z,100981.96
2019-04-20T05:49:46.845Z,100988.05
2019-04-20T05:52:31.752Z,100981.34
2019-04-20T05:54:46.788Z,100991.77
2019-04-20T05:57:23.665Z,100991.58
2019-04-20T05:59:45.011Z,100995.00
2019-04-20T06:02:09.731Z,100999.64
2019-04-20T06:04:55.638Z,101000.28
2019-04-20T06:07:09.181Z,100998.45
2019-04-20T06:09:33.501Z,101007.23
2019-04-20T06:12:17.870Z,101009.52
2019-04-20T06:14:41.592Z,101005.97
2019-04-20T06:17:15.890Z,101007.88
2019-04-20T06:19:39.569Z,100999.19
2019-04-20T06:22:24.698Z,101008.83
2019-04-20T06:24:55.270Z,101012.39
2019-04-20T06:27:08.252Z,101011.23
2019-04-20T06:29:34.794Z,101010.51
2019-04-20T06:32:12.946Z,101005.23
2019-04-20T06:34:39.951Z,101007.16
2019-04-20T06:36:57.375Z,101014.33
2019-04-20T06:39:32.425Z,101008.73
2019-04-20T06:51:53.210Z,101011.37
2019-04-20T06:54:10.479Z,101007.72
2019-04-20T06:56:48.584Z,101014.64
2019-04-20T06:59:27.684Z,101018.23
2019-04-20T07:01:56.913Z,101020.93
2019-04-20T07:04:34.860Z,101016.16
2019-04-20T07:07:07.047Z,101011.32
2019-04-20T07:09:15.291Z,101015.19
2019-04-20T07:11:41.087Z,101015.48
2019-04-20T07:13:51.997Z,101011.91
2019-04-20T07:16:36.296Z,101016.49
2019-04-20T07:19:07.871Z,101014.40
2019-04-20T07:22:10.502Z,101009.70
2019-04-20T07:24:30.578Z,101007.88
2019-04-20T07:26:58.879Z,101006.34
2019-04-20T07:29:26.038Z,100981.17
2019-04-20T07:31:45.900Z,101008.23
2019-04-20T07:34:16.843Z,101001.77
2019-04-20T07:36:51.726Z,101003.35
2019-04-20T07:39:13.289Z,100999.72
2019-04-20T07:42:00.375Z,100999.34
2019-04-20T07:44:10.788Z,100992.92
2019-04-20T07:46:47.167Z,100993.64
2019-04-20T07:49:01.645Z,100992.46
2019-04-20T07:51:18.251Z,100995.94
2019-04-20T07:53:59.499Z,100999.77
2019-04-20T07:56:34.966Z,100995.22
2019-04-20T07:58:41.109Z,100994.69
2019-04-20T08:01:30.161Z,101000.03
2019-04-20T08:03:55.570Z,101005.94
2019-04-20T08:06:15.456Z,101000.78
2019-04-20T08:08:56.068Z,101000.23
2019-04-20T08:11:23.175Z,101002.52
2019-04-20T08:13:51.289Z,101007.24
2019-04-20T08:16:29.257Z,100998.38
2019-04-20T08:18:52.604Z,100999.59
2019-04-20T08:21:16.215Z,101000.90
2019-04-20T08:23:44.224Z,100999.16
2019-04-20T08:26:03.943Z,100999.58
2019-04-20T08:28:38.465Z,101005.23
2019-04-20T08:31:24.704Z,101004.46
2019-04-20T08:34:15.155Z,100993.32
2019-04-20T08:36:33.263Z,100996.72
2019-04-20T08:39:16.947Z,100994.71
2019-04-20T08:41:20.725Z,100999.80
2019-04-20T08:44:30.943Z,100995.42
2019-04-20T08:46:23.409Z,100989.39
2019-04-20T08:48:52.272Z,100994.15
2019-04-20T08:51:12.105Z,100992.41
2019-04-20T08:53:44.650Z,100991.51
2019-04-20T08:56:05.864Z,100993.23
2019-04-20T08:58:20.350Z,100992.47
2019-04-20T09:00:53.623Z,100993.23
2019-04-20T09:03:24.317Z,100990.10
2019-04-20T09:05:52.292Z,100954.88
2019-04-20T09:08:17.950Z,100989.93
2019-04-20T09:10:54.153Z,100984.29
2019-04-20T09:13:18.673Z,100986.25
2019-04-20T09:15:34.180Z,100981.17
2019-04-20T09:18:15.147Z,100983.59
2019-04-20T09:20:44.682Z,100981.44
2019-04-20T09:23:18.600Z,100977.77
2019-04-20T09:28:20.096Z,100979.95
2019-04-20T09:31:09.201Z,100973.53
2019-04-20T09:33:51.696Z,100971.74
2019-04-20T09:36:25.263Z,100969.05
2019-04-20T09:39:06.136Z,100960.95
2019-04-20T09:41:56.061Z,100957.09
2019-04-20T09:43:58.387Z,100953.17
2019-04-20T09:46:24.675Z,100947.23
2019-04-20T09:48:57.439Z,100946.28
2019-04-20T09:51:37.839Z,100947.95
2019-04-20T09:53:55.028Z,100955.63
2019-04-20T09:56:29.686Z,100948.25
2019-04-20T09:59:01.106Z,100944.22
2019-04-20T10:01:19.140Z,100941.62
2019-04-20T10:03:36.720Z,100938.06
2019-04-20T10:06:03.390Z,100929.19
2019-04-20T10:08:32.802Z,100932.30
2019-04-20T10:10:57.152Z,100936.66
2019-04-20T10:13:23.162Z,100930.75
2019-04-20T10:15:50.009Z,100928.31
2019-04-20T10:18:15.933Z,100926.11
2019-04-20T10:20:43.439Z,100928.39
2019-04-20T10:23:09.443Z,100923.26
2019-04-20T10:25:36.304Z,100925.98
2019-04-20T10:28:03.356Z,100918.28
2019-04-20T10:31:10.673Z,100919.44
2019-04-20T10:33:37.612Z,100916.34
2019-04-20T10:36:05.745Z,100921.69
2019-04-20T10:38:34.289Z,100916.66
2019-04-20T10:41:08.246Z,100912.62
2019-04-20T10:43:28.129Z,100914.20
2019-04-20T10:45:55.044Z,100911.41
2019-04-20T10:48:21.488Z,100905.06
2019-04-20T10:50:47.376Z,100910.06
2019-04-20T10:53:14.083Z,100906.31
2019-04-20T10:55:40.131Z,100905.92
2019-04-20T10:58:07.353Z,100896.71
2019-04-20T11:00:39.710Z,100895.09
2019-04-20T11:03:06.001Z,100885.56
2019-04-20T11:05:32.794Z,100888.27
2019-04-20T11:08:00.608Z,100886.13
2019-04-20T11:10:29.319Z,100879.23
2019-04-20T11:12:54.291Z,100878.83
2019-04-20T11:15:20.903Z,100881.13
2019-04-20T11:17:47.090Z,100881.78
2019-04-20T11:20:13.346Z,100872.30
2019-04-20T11:22:40.166Z,100878.61
2019-04-20T11:25:06.223Z,100873.18
2019-04-20T11:27:32.264Z,100868.06
2019-04-20T11:29:58.365Z,100873.08
2019-04-20T11:32:24.487Z,100870.22
2019-04-20T11:34:51.237Z,100862.81
2019-04-20T11:37:17.344Z,100858.58
2019-04-20T11:39:43.199Z,100854.20
2019-04-20T11:42:09.979Z,100844.88
2019-04-20T11:44:36.585Z,100849.16
2019-04-20T11:47:03.369Z,100849.86
2019-04-20T11:49:29.439Z,100846.30
2019-04-20T11:51:55.477Z,100838.25
2019-04-20T11:54:22.086Z,100836.32
2019-04-20T11:56:49.073Z,100834.47
2019-04-20T11:59:15.176Z,100830.22
2019-04-20T12:01:54.768Z,100827.06
2019-04-20T12:04:34.075Z,100821.20
2019-04-20T12:06:46.885Z,100814.52
2019-04-20T12:09:12.998Z,100816.27
2019-04-20T12:11:53.313Z,100816.27
2019-04-20T12:14:06.967Z,100817.96
2019-04-20T12:16:32.947Z,100816.77
2019-04-20T12:19:02.245Z,100816.77
2019-04-20T12:21:28.704Z,100820.97
2019-04-20T12:23:56.100Z,100813.05
2019-04-20T12:26:22.725Z,100817.37
2019-04-20T12:28:49.653Z,100816.37
2019-04-20T12:31:20.500Z,100817.09
2019-04-20T12:33:44.327Z,100801.75
2019-04-20T12:36:12.150Z,100805.91
2019-04-20T12:38:39.148Z,100799.26
2019-04-20T12:41:07.492Z,100794.23
2019-04-20T12:43:33.954Z,100794.11
2019-04-20T12:46:00.062Z,100786.45
2019-04-20T12:48:26.124Z,100789.30
2019-04-20T12:50:53.314Z,100785.77
2019-04-20T12:53:20.457Z,100786.61
2019-04-20T12:55:46.655Z,100776.73
2019-04-20T12:58:12.666Z,100784.34
2019-04-20T13:00:41.696Z,100771.89
2019-04-20T13:03:07.682Z,100774.98
2019-04-20T13:05:33.870Z,100768.61
2019-04-20T13:08:02.367Z,100764.76
2019-04-20T13:10:27.892Z,100760.08
2019-04-20T13:12:56.426Z,100755.64
2019-04-20T13:15:32.430Z,100752.94
2019-04-20T13:17:59.396Z,100760.27
2019-04-20T13:20:25.839Z,100740.64
2019-04-20T13:22:52.922Z,100743.64
2019-04-20T13:25:19.103Z,100738.20
2019-04-20T13:27:45.294Z,100735.81
2019-04-20T13:30:11.627Z,100741.61
2019-04-20T13:32:38.115Z,100735.48
2019-04-20T13:35:05.942Z,100731.03
2019-04-20T13:37:31.941Z,100718.31
2019-04-20T13:39:58.668Z,100727.77
2019-04-20T13:42:28.224Z,100727.19
2019-04-20T13:44:52.841Z,100723.40
2019-04-20T13:47:19.182Z,100716.63
2019-04-20T13:49:45.284Z,100709.13
2019-04-20T13:52:11.176Z,100699.42
2019-04-20T13:54:37.997Z,100708.53
2019-04-20T13:57:06.506Z,100697.75
2019-04-20T13:59:35.173Z,100685.19
2019-04-20T14:02:04.410Z,100692.88
2019-04-20T14:04:32.722Z,100693.23
2019-04-20T14:06:59.520Z,100687.38
2019-04-20T14:09:25.689Z,100689.39
2019-04-20T14:11:51.881Z,100675.91
2019-04-20T14:14:19.212Z,100682.53
2019-04-20T14:16:45.489Z,100680.97
2019-04-20T14:19:11.593Z,100681.14
2019-04-20T14:21:38.455Z,100675.06
2019-04-20T14:24:04.772Z,100666.12
2019-04-20T14:26:30.886Z,100672.94
2019-04-20T14:28:56.857Z,100667.48
2019-04-20T14:31:23.795Z,100669.59
2019-04-20T14:33:50.844Z,100660.03
2019-04-20T14:36:16.983Z,100649.25
2019-04-20T14:38:47.008Z,100653.91
2019-04-20T14:41:12.878Z,100647.47
2019-04-20T14:43:39.922Z,100648.80
2019-04-20T14:46:06.071Z,100648.97
2019-04-20T14:48:32.090Z,100644.09
2019-04-20T14:50:59.278Z,100644.38
2019-04-20T14:53:25.550Z,100656.89
2019-04-20T14:55:51.475Z,100640.61
2019-04-20T14:58:38.378Z,100644.18
2019-04-20T15:01:06.790Z,100648.07
2019-04-20T15:03:38.690Z,100632.77
2019-04-20T15:06:07.348Z,100633.59
2019-04-20T15:08:34.569Z,100631.59
2019-04-20T15:11:01.004Z,100624.03
2019-04-20T15:13:28.760Z,100620.28
2019-04-20T15:15:55.067Z,100617.59
2019-04-20T15:18:23.806Z,100620.51
2019-04-20T15:20:51.689Z,100614.50
2019-04-20T15:23:19.624Z,100612.89
2019-04-20T15:25:46.470Z,100615.55
2019-04-20T15:28:12.437Z,100613.03
2019-04-20T15:30:38.471Z,100605.92
2019-04-20T15:33:05.141Z,100603.06
2019-04-20T15:35:31.288Z,100612.45
2019-04-20T15:37:57.351Z,100601.89
2019-04-20T15:40:23.546Z,100603.18
2019-04-20T15:42:58.918Z,100600.41
2019-04-20T15:45:18.933Z,100594.92
2019-04-20T15:47:45.867Z,100600.22
2019-04-20T15:50:12.226Z,100597.47
2019-04-20T15:52:43.218Z,100601.82
2019-04-20T15:55:14.341Z,100597.87
2019-04-20T15:57:34.909Z,100592.95
2019-04-20T16:00:02.548Z,100589.20
2019-04-20T16:02:47.353Z,100592.41
2019-04-20T16:05:18.726Z,100588.94
2019-04-20T16:07:52.448Z,100590.76
2019-04-20T16:10:12.955Z,100593.71
2019-04-20T16:12:38.940Z,100593.95
2019-04-20T16:15:07.334Z,100587.16
2019-04-20T16:17:39.082Z,100592.55
2019-04-20T16:20:08.193Z,100588.39
2019-04-20T16:22:30.935Z,100582.81
2019-04-20T16:25:01.618Z,100581.50
2019-04-20T16:27:29.758Z,100579.59
2019-04-20T16:29:55.901Z,100566.55
2019-04-20T16:32:22.634Z,100562.19
2019-04-20T16:34:48.705Z,100559.06
2019-04-20T16:37:14.839Z,100553.60
2019-04-20T16:39:40.841Z,100548.86
2019-04-20T16:42:08.996Z,100539.41
2019-04-20T16:44:35.542Z,100537.35
2019-04-20T16:47:01.729Z,100533.45
2019-04-20T16:49:28.789Z,100526.13
2019-04-20T16:51:55.037Z,100527.34
2019-04-20T16:54:25.820Z,100527.38
2019-04-20T16:56:52.959Z,100536.31
2019-04-20T16:59:20.819Z,100529.96
2019-04-20T17:01:48.428Z,100537.93
2019-04-20T17:04:19.112Z,100540.65
2019-04-20T17:07:02.459Z,100542.73
2019-04-20T17:09:29.223Z,100547.02
2019-04-20T17:11:55.263Z,100535.84
2019-04-20T17:14:23.737Z,100541.69
2019-04-20T17:16:49.421Z,100541.73
2019-04-20T17:19:15.618Z,100542.97
2019-04-20T17:21:42.413Z,100548.36
2019-04-20T17:24:09.103Z,100545.81
2019-04-20T17:26:52.926Z,100548.52
2019-04-20T17:29:22.089Z,100553.73
2019-04-20T17:31:51.284Z,100554.95
2019-04-20T17:34:39.028Z,100567.06
2019-04-20T17:36:46.516Z,100565.34
2019-04-20T17:39:25.295Z,100564.86
2019-04-20T17:42:00.538Z,100562.02
2019-04-20T17:44:24.777Z,100573.16
2019-04-20T17:46:48.030Z,100573.36
2019-04-20T17:49:19.465Z,100572.86
2019-04-20T17:51:59.247Z,100567.09
2019-04-20T17:54:06.387Z,100585.13
2019-04-20T17:56:31.482Z,100585.13
2019-04-20T17:58:58.536Z,100582.06
2019-04-20T18:01:57.910Z,100584.47
2019-04-20T18:04:48.766Z,100589.80
2019-04-20T18:06:57.914Z,100588.27
2019-04-20T18:09:40.167Z,100591.41
2019-04-20T18:11:49.086Z,100591.11
2019-04-20T18:14:28.573Z,100592.97
2019-04-20T18:17:13.754Z,100597.38
2019-04-20T18:19:34.602Z,100595.73
2019-04-20T18:22:01.913Z,100602.04
2019-04-20T18:24:50.720Z,100599.75
2019-04-20T18:27:16.224Z,100600.03
2019-04-20T18:29:42.796Z,100611.02
2019-04-20T18:32:01.767Z,100608.85
2019-04-20T18:34:36.348Z,100612.73
2019-04-20T18:37:08.615Z,100610.37
2019-04-20T18:39:38.699Z,100608.13
2019-04-20T18:42:10.141Z,100609.77
2019-04-20T18:44:30.442Z,100611.13
2019-04-20T18:47:18.152Z,100618.12
2019-04-20T18:49:36.109Z,100620.65
2019-04-20T18:51:51.633Z,100621.58
2019-04-20T18:54:22.199Z,100621.41
2019-04-20T18:56:50.370Z,100629.86
2019-04-20T18:59:14.500Z,100629.46
2019-04-20T19:01:42.901Z,100632.26
2019-04-20T19:04:09.976Z,100643.78
2019-04-20T19:06:36.030Z,100637.89
2019-04-20T19:09:04.966Z,100647.89
2019-04-20T19:11:31.019Z,100638.77
2019-04-20T19:14:23.641Z,100640.86
2019-04-20T19:16:56.829Z,100638.51
2019-04-20T19:19:27.049Z,100632.88
2019-04-20T19:21:43.741Z,100638.55
2019-04-20T19:24:14.239Z,100633.83
2019-04-20T19:26:38.523Z,100631.05
2019-04-20T19:29:14.013Z,100638.36
2019-04-20T19:31:52.531Z,100642.95
2019-04-20T19:34:19.032Z,100645.16
2019-04-20T19:36:36.933Z,100646.49
2019-04-20T19:39:17.234Z,100640.45
2019-04-20T19:41:38.995Z,100647.86
2019-04-20T19:44:07.269Z,100651.13
2019-04-20T19:48:59.569Z,100654.73
2019-04-20T19:51:41.983Z,100652.03
2019-04-20T19:54:06.609Z,100653.70
2019-04-20T19:56:33.649Z,100652.33
2019-04-20T19:58:57.522Z,100651.75
2019-04-20T20:01:11.529Z,100653.09
2019-04-20T20:03:37.810Z,100657.47
2019-04-20T20:06:03.936Z,100659.58
2019-04-20T20:08:34.723Z,100660.08
2019-04-20T20:11:00.982Z,100660.16
2019-04-20T20:13:33.249Z,100664.77
2019-04-20T20:16:04.492Z,100668.13
2019-04-20T20:18:35.373Z,100674.13
2019-04-20T20:21:04.798Z,100667.33
2019-04-20T20:23:21.380Z,100668.89
2019-04-20T20:25:49.646Z,100672.28
2019-04-20T20:28:29.895Z,100667.77
2019-04-20T20:30:56.979Z,100669.67
2019-04-20T20:33:27.795Z,100667.71
2019-04-20T20:35:47.506Z,100671.52
2019-04-20T20:38:16.778Z,100669.73
2019-04-20T20:40:38.530Z,100671.44
2019-04-20T20:43:14.435Z,100671.29
2019-04-20T20:45:36.703Z,100664.92
2019-04-20T20:48:18.480Z,100666.41
2019-04-20T20:50:58.751Z,100675.53
2019-04-20T20:53:06.387Z,100660.42
2019-04-20T20:55:30.851Z,100668.95
2019-04-20T20:58:00.618Z,100669.44
2019-04-20T21:00:28.009Z,100675.58
2019-04-20T21:02:53.791Z,100678.81
2019-04-20T21:05:15.463Z,100678.73
2019-04-20T21:07:42.735Z,100676.29
2019-04-20T21:10:10.364Z,100675.77
2019-04-20T21:12:45.401Z,100680.48
2019-04-20T21:15:12.376Z,100675.91
2019-04-20T21:17:47.630Z,100675.59
2019-04-20T21:20:22.442Z,100676.41
2019-04-20T21:22:54.485Z,100674.17
2019-04-20T21:25:13.016Z,100675.14
2019-04-20T21:27:39.090Z,100677.37
2019-04-20T21:30:10.905Z,100678.14
2019-04-20T21:32:39.703Z,100676.11
2019-04-20T21:35:06.459Z,100673.66
2019-04-20T21:37:29.082Z,100678.67
2019-04-20T21:39:59.817Z,100684.58
2019-04-20T21:42:26.707Z,100678.05
2019-04-20T21:44:57.621Z,100685.37
2019-04-20T21:47:23.794Z,100686.40
2019-04-20T21:49:57.976Z,100689.28
2019-04-20T21:52:23.339Z,100690.63
2019-04-20T21:54:42.856Z,100692.52
2019-04-20T21:57:11.125Z,100687.16
2019-04-20T21:59:43.245Z,100687.22
2019-04-20T22:02:11.662Z,100687.80
2019-04-20T22:04:33.540Z,100691.88
2019-04-20T22:07:00.456Z,100692.18
2019-04-20T22:09:34.558Z,100690.59
2019-04-20T22:11:54.293Z,100691.45
2019-04-20T22:14:24.323Z,100689.19
2019-04-20T22:16:52.027Z,100679.23
2019-04-20T22:19:27.429Z,100685.55
2019-04-20T22:21:58.448Z,100686.90
2019-04-20T22:24:28.296Z,100679.14
2019-04-20T22:26:50.329Z,100680.11
2019-04-20T22:29:07.994Z,100678.89
2019-04-20T22:31:34.083Z,100673.71
2019-04-20T22:34:06.234Z,100675.66
2019-04-20T22:36:33.903Z,100676.00
2019-04-20T22:39:11.699Z,100655.58
2019-04-20T22:41:40.730Z,100672.73
2019-04-20T22:44:12.412Z,100667.66
2019-04-20T22:46:37.705Z,100664.67
2019-04-20T22:49:20.453Z,100667.13
2019-04-20T22:51:44.008Z,100661.46
2019-04-20T22:54:18.821Z,100660.92
2019-04-20T22:56:39.053Z,100658.38
2019-04-20T22:59:02.236Z,100652.52
2019-04-20T23:01:35.059Z,100654.71
2019-04-20T23:03:52.688Z,100658.06
2019-04-20T23:06:18.848Z,100657.48
2019-04-20T23:08:47.305Z,100658.38
2019-04-20T23:11:18.000Z,100652.94
2019-04-20T23:13:43.674Z,100660.81
2019-04-20T23:16:09.276Z,100659.86
2019-04-20T23:18:36.090Z,100657.52
2019-04-20T23:21:07.097Z,100651.86
2019-04-20T23:23:30.979Z,100657.20
2019-04-20T23:25:58.870Z,100654.14
2019-04-20T23:28:24.741Z,100651.20
2019-04-20T23:30:51.909Z,100654.20
2019-04-20T23:33:18.565Z,100649.60
2019-04-20T23:35:49.893Z,100648.17
2019-04-20T23:38:16.456Z,100657.04
2019-04-20T23:40:41.679Z,100653.19
2019-04-20T23:43:29.040Z,100647.64
2019-04-20T23:46:17.799Z,100645.79
2019-04-20T23:48:52.080Z,100645.34
2019-04-20T23:51:40.722Z,100640.72
2019-04-20T23:53:55.526Z,100635.48
2019-04-20T23:56:17.473Z,100635.42
2019-04-20T23:58:47.680Z,100632.81
